METAR Data
IDs: Format: Raw Decoded Include TAF

Data at: 0200 UTC 20 Jan 2022

ESOW 200150Z AUTO 33014KT 2500 -SN VV023 M02/M04 Q0990